FJ-0001 weather

Taunovo Airstrip
Nanuku Auberge Resort, Central, Fiji

Public forecast

Using degrees Celsius for public forecast. Weather courtesy of forecast.io.

METAR (pilot weather report)

Closest report is Nausori International Airport, 31.7 nm (58.8 km) ENE. Retrieved 2019/09/23 08:00 UTC (45 seconds ago):

NFNA 230800Z 13007KT 9999 FEW020 SCT050 22/16 Q1021

TAF (pilot weather forecast)

Closest forecast is Nausori International Airport, 31.7 nm (58.8 km) ENE. Retrieved 2019/09/23 06:00 UTC (2 hours ago):

TAF NFNA 230507Z 2306/2406 12009KT 9999 SCT022 SCT050